createdAt,value
2022-10-06T00:02:00.085Z,6.57
2022-10-06T00:04:27.735Z,3.58
2022-10-06T00:07:01.621Z,2.58
2022-10-06T00:09:29.040Z,1.65
2022-10-06T00:11:56.406Z,7.78
2022-10-06T00:14:30.610Z,4.65
2022-10-06T00:16:57.983Z,3.33
2022-10-06T00:19:25.468Z,9.35
2022-10-06T00:21:59.652Z,6.80
2022-10-06T00:24:28.063Z,6.68
2022-10-06T00:26:58.250Z,4.80
2022-10-06T00:29:32.615Z,4.03
2022-10-06T00:32:00.094Z,6.25
2022-10-06T00:34:27.546Z,5.60
2022-10-06T00:37:01.798Z,6.70
2022-10-06T00:39:29.203Z,4.45
2022-10-06T00:42:16.626Z,8.80
2022-10-06T00:44:48.458Z,3.13
2022-10-06T00:47:15.908Z,6.35
2022-10-06T00:49:52.044Z,9.25
2022-10-06T00:52:22.807Z,2.33
2022-10-06T00:54:51.045Z,5.40
2022-10-06T00:57:27.011Z,6.38
2022-10-06T00:59:54.530Z,6.40
2022-10-06T01:02:34.084Z,5.38
2022-10-06T01:05:03.658Z,5.53
2022-10-06T01:07:31.492Z,8.35
2022-10-06T01:10:05.986Z,4.97
2022-10-06T01:12:34.448Z,7.97
2022-10-06T01:15:02.168Z,3.40
2022-10-06T01:17:50.175Z,3.80
2022-10-06T01:20:19.580Z,9.15
2022-10-06T01:23:05.583Z,4.75
2022-10-06T01:25:35.024Z,3.85
2022-10-06T01:28:15.263Z,2.08
2022-10-06T01:30:53.000Z,3.38
2022-10-06T01:33:28.190Z,4.60
2022-10-06T01:35:56.234Z,3.10
2022-10-06T01:38:27.456Z,4.05
2022-10-06T01:41:03.549Z,5.20
2022-10-06T01:43:39.786Z,4.20
2022-10-06T01:46:16.240Z,3.13
2022-10-06T01:48:43.711Z,3.60
2022-10-06T01:51:25.103Z,2.70
2022-10-06T01:53:52.468Z,6.20
2022-10-06T01:56:21.124Z,3.80
2022-10-06T01:58:55.110Z,5.38
2022-10-06T02:01:24.188Z,4.93
2022-10-06T02:03:51.646Z,3.03
2022-10-06T02:06:26.147Z,5.78
2022-10-06T02:08:55.766Z,3.30
2022-10-06T02:11:25.028Z,4.07
2022-10-06T02:13:59.044Z,4.90
2022-10-06T02:16:28.684Z,3.50
2022-10-06T02:18:56.054Z,3.35
2022-10-06T02:21:31.915Z,4.78
2022-10-06T02:24:01.835Z,4.57
2022-10-06T02:26:29.239Z,3.45
2022-10-06T02:29:06.070Z,6.32
2022-10-06T02:31:35.027Z,4.05
2022-10-06T02:34:02.446Z,8.02
2022-10-06T02:36:37.001Z,6.55
2022-10-06T02:39:04.925Z,4.15
2022-10-06T02:41:46.040Z,4.25
2022-10-06T02:44:23.383Z,5.93
2022-10-06T02:46:58.064Z,5.15
2022-10-06T02:49:25.599Z,4.53
2022-10-06T02:51:53.271Z,6.80
2022-10-06T02:54:27.024Z,5.28
2022-10-06T02:56:55.634Z,6.47
2022-10-06T02:59:25.551Z,4.32
2022-10-06T03:55:03.925Z,7.90
2022-10-06T04:07:29.236Z,10.02
2022-10-06T04:10:32.036Z,9.88
2022-10-06T04:13:06.045Z,8.73
2022-10-06T04:15:33.497Z,10.95
2022-10-06T04:18:05.573Z,7.28
2022-10-06T04:20:39.398Z,7.93
2022-10-06T04:23:07.592Z,7.93
2022-10-06T04:25:35.391Z,10.05
2022-10-06T04:28:11.349Z,5.28
2022-10-06T04:30:43.083Z,7.00
2022-10-06T04:33:11.682Z,8.40
2022-10-06T04:35:45.811Z,7.32
2022-10-06T04:38:15.404Z,8.75
2022-10-06T04:40:45.046Z,5.20
2022-10-06T04:43:20.131Z,6.18
2022-10-06T04:45:47.547Z,6.68
2022-10-06T04:51:27.688Z,8.25
2022-10-06T05:02:34.431Z,7.40
2022-10-06T05:08:43.933Z,11.10
2022-10-06T05:39:16.237Z,9.38
2022-10-06T05:41:53.735Z,9.05
2022-10-06T05:44:45.395Z,6.57
2022-10-06T05:47:20.558Z,9.77
2022-10-06T05:49:54.475Z,4.43
2022-10-06T05:52:24.737Z,7.85
2022-10-06T05:54:55.039Z,6.25
2022-10-06T05:57:28.902Z,8.13
2022-10-06T05:59:56.538Z,6.20
2022-10-06T06:02:27.833Z,4.53
2022-10-06T06:05:06.991Z,6.18
2022-10-06T06:07:34.654Z,6.40
2022-10-06T06:10:02.106Z,2.97
2022-10-06T06:12:36.903Z,10.82
2022-10-06T06:15:23.721Z,2.80
2022-10-06T06:17:57.938Z,5.22
2022-10-06T06:20:25.493Z,3.35
2022-10-06T06:22:53.763Z,4.72
2022-10-06T06:25:28.046Z,4.75
2022-10-06T06:27:56.209Z,5.78
2022-10-06T06:30:24.503Z,6.35
2022-10-06T06:33:02.957Z,2.35
2022-10-06T06:35:32.342Z,9.32
2022-10-06T06:37:59.911Z,5.30
2022-10-06T06:40:33.959Z,4.18
2022-10-06T06:43:01.531Z,2.92
2022-10-06T06:45:43.018Z,7.15
2022-10-06T06:48:16.096Z,4.78
2022-10-06T06:50:51.030Z,1.73
2022-10-06T06:53:19.819Z,5.68
2022-10-06T06:55:57.924Z,6.55
2022-10-06T06:58:26.113Z,6.20
2022-10-06T07:00:53.865Z,5.72
2022-10-06T07:03:55.612Z,3.63
2022-10-06T07:06:16.948Z,6.82
2022-10-06T07:08:53.062Z,4.60
2022-10-06T07:11:22.943Z,4.32
2022-10-06T07:14:01.943Z,6.63
2022-10-06T07:16:50.791Z,6.22
2022-10-06T07:19:45.215Z,6.18
2022-10-06T07:22:33.597Z,5.68
2022-10-06T07:25:21.646Z,5.30
2022-10-06T07:27:55.888Z,4.05
2022-10-06T07:30:40.549Z,4.07
2022-10-06T07:33:09.354Z,6.03
2022-10-06T07:35:47.488Z,3.05
2022-10-06T07:38:16.710Z,3.83
2022-10-06T07:40:50.550Z,7.63
2022-10-06T07:43:24.798Z,3.97
2022-10-06T07:45:59.048Z,5.22
2022-10-06T07:48:32.730Z,6.10
2022-10-06T07:51:00.295Z,6.55
2022-10-06T07:53:30.416Z,4.63
2022-10-06T07:56:11.433Z,8.02
2022-10-06T07:58:40.835Z,9.07
2022-10-06T08:01:10.802Z,7.57
2022-10-06T08:03:46.433Z,2.75
2022-10-06T08:06:17.259Z,6.93
2022-10-06T08:08:49.044Z,5.55
2022-10-06T08:11:26.470Z,3.15
2022-10-06T08:13:56.164Z,6.80
2022-10-06T08:16:36.549Z,5.65
2022-10-06T08:19:04.614Z,4.90
2022-10-06T08:21:35.887Z,5.22
2022-10-06T08:24:10.393Z,6.28
2022-10-06T08:26:37.864Z,5.25
2022-10-06T08:29:07.668Z,2.35
2022-10-06T08:31:41.487Z,7.32
2022-10-06T08:34:12.162Z,5.10
2022-10-06T08:36:45.000Z,3.25
2022-10-06T08:39:30.842Z,3.33
2022-10-06T08:41:59.052Z,4.55
2022-10-06T08:45:13.869Z,4.43
2022-10-06T08:48:14.122Z,5.10
2022-10-06T08:51:27.873Z,7.13
2022-10-06T08:54:21.331Z,5.18
2022-10-06T08:57:09.855Z,5.13
2022-10-06T08:59:37.883Z,5.20
2022-10-06T09:02:49.994Z,3.65
2022-10-06T09:05:25.391Z,10.20
2022-10-06T09:08:11.823Z,7.63
2022-10-06T09:11:03.007Z,4.32
2022-10-06T09:13:59.919Z,5.63
2022-10-06T09:16:38.394Z,7.50
2022-10-06T09:19:20.872Z,4.32
2022-10-06T09:21:52.274Z,4.57
2022-10-06T09:24:33.969Z,6.60
2022-10-06T09:27:12.705Z,8.90
2022-10-06T09:29:58.409Z,5.88
2022-10-06T09:32:28.710Z,5.32
2022-10-06T09:35:11.034Z,5.25
2022-10-06T09:38:09.028Z,7.32
2022-10-06T09:40:58.022Z,8.55
2022-10-06T09:43:39.224Z,3.95
2022-10-06T09:46:55.291Z,7.43
2022-10-06T09:49:25.168Z,8.15
2022-10-06T09:52:07.285Z,6.57
2022-10-06T09:54:35.239Z,11.20
2022-10-06T09:57:32.099Z,8.75
2022-10-06T10:00:12.364Z,5.60
2022-10-06T10:02:48.174Z,9.10
2022-10-06T10:05:21.471Z,7.38
2022-10-06T10:11:40.647Z,3.13
2022-10-06T10:14:34.578Z,3.92
2022-10-06T10:20:21.089Z,5.15
2022-10-06T10:23:30.835Z,6.20
2022-10-06T10:26:55.154Z,4.53
2022-10-06T10:29:50.113Z,6.78
2022-10-06T10:32:47.049Z,11.10
2022-10-06T10:35:32.467Z,7.18
2022-10-06T10:38:22.664Z,4.78
2022-10-06T10:41:02.441Z,5.93
2022-10-06T10:43:47.755Z,4.43
2022-10-06T10:46:39.957Z,5.82
2022-10-06T10:52:24.853Z,5.53
2022-10-06T10:55:12.971Z,5.65
2022-10-06T11:11:06.152Z,6.47
2022-10-06T11:13:52.919Z,6.68
2022-10-06T11:16:59.128Z,4.43
2022-10-06T11:19:54.591Z,4.68
2022-10-06T11:22:50.076Z,7.00
2022-10-06T11:25:38.121Z,5.10
2022-10-06T11:28:49.235Z,11.75
2022-10-06T11:31:22.718Z,4.38
2022-10-06T11:34:04.234Z,5.95
2022-10-06T11:36:59.083Z,4.20
2022-10-06T11:40:06.519Z,7.50
2022-10-06T11:49:50.864Z,4.68
2022-10-06T11:52:18.837Z,6.05
2022-10-06T11:55:02.518Z,5.13
2022-10-06T11:57:33.962Z,6.50
2022-10-06T12:00:26.868Z,10.10
2022-10-06T12:03:16.892Z,7.72
2022-10-06T12:06:04.256Z,7.50
2022-10-06T12:08:47.108Z,5.13
2022-10-06T12:18:29.170Z,4.45
2022-10-06T12:21:16.161Z,8.02
2022-10-06T12:24:04.016Z,5.65
2022-10-06T12:27:02.785Z,11.20
2022-10-06T12:29:42.449Z,8.50
2022-10-06T12:35:42.055Z,8.65
2022-10-06T12:38:31.302Z,9.52
2022-10-06T12:41:06.046Z,5.38
2022-10-06T12:44:05.517Z,7.72
2022-10-06T12:46:48.132Z,8.00
2022-10-06T12:49:36.957Z,7.30
2022-10-06T12:52:53.218Z,11.90
2022-10-06T12:55:43.824Z,7.53
2022-10-06T12:58:35.193Z,4.85
2022-10-06T13:01:06.040Z,6.03
2022-10-06T13:03:34.408Z,3.80
2022-10-06T13:06:11.250Z,9.43
2022-10-06T13:08:40.217Z,5.60
2022-10-06T13:11:28.482Z,5.15
2022-10-06T13:14:01.470Z,8.32
2022-10-06T13:16:39.418Z,6.25
2022-10-06T13:19:26.907Z,6.10
2022-10-06T13:22:01.741Z,6.93
2022-10-06T13:24:29.338Z,9.40
2022-10-06T13:26:56.970Z,5.10
2022-10-06T13:29:32.744Z,8.25
2022-10-06T13:32:02.451Z,5.03
2022-10-06T13:34:53.699Z,4.18
2022-10-06T13:37:21.342Z,7.88
2022-10-06T13:39:50.211Z,8.77
2022-10-06T13:42:28.774Z,8.38
2022-10-06T13:45:01.071Z,4.82
2022-10-06T13:47:37.733Z,7.28
2022-10-06T13:50:16.007Z,10.73
2022-10-06T13:52:54.749Z,10.90
2022-10-06T13:55:29.615Z,8.35
2022-10-06T13:58:10.238Z,7.95
2022-10-06T14:00:56.357Z,6.63
2022-10-06T14:03:32.355Z,6.28
2022-10-06T14:06:17.863Z,6.88
2022-10-06T14:09:01.320Z,6.05
2022-10-06T14:11:30.518Z,5.30
2022-10-06T14:14:13.738Z,9.93
2022-10-06T14:16:48.482Z,10.10
2022-10-06T14:19:43.143Z,11.60
2022-10-06T14:22:38.384Z,9.10
2022-10-06T14:25:29.176Z,6.07
2022-10-06T14:28:03.305Z,7.60
2022-10-06T14:30:40.670Z,5.10
2022-10-06T14:33:28.574Z,9.13
2022-10-06T14:36:03.610Z,5.78
2022-10-06T14:38:31.123Z,10.20
2022-10-06T14:41:02.878Z,4.57
2022-10-06T14:43:36.700Z,5.65
2022-10-06T14:46:06.476Z,6.55
2022-10-06T14:48:34.016Z,8.95
2022-10-06T14:51:11.586Z,6.60
2022-10-06T14:53:39.791Z,9.80
2022-10-06T14:56:23.604Z,6.47
2022-10-06T14:58:51.643Z,10.38
2022-10-06T15:01:31.134Z,6.07
2022-10-06T15:04:04.442Z,4.80
2022-10-06T15:06:57.076Z,6.68
2022-10-06T15:09:24.609Z,6.15
2022-10-06T15:11:52.601Z,7.43
2022-10-06T15:14:30.083Z,5.90
2022-10-06T15:17:01.244Z,5.97
2022-10-06T15:19:37.146Z,10.13
2022-10-06T15:22:06.326Z,7.55
2022-10-06T15:24:33.702Z,6.75
2022-10-06T15:27:29.233Z,5.60
2022-10-06T15:29:58.580Z,5.22
2022-10-06T15:32:29.919Z,4.70
2022-10-06T15:35:05.393Z,2.92
2022-10-06T15:37:32.890Z,4.00
2022-10-06T15:40:01.802Z,7.95
2022-10-06T15:42:39.178Z,8.85
2022-10-06T15:45:09.341Z,7.72
2022-10-06T15:47:36.755Z,4.15
2022-10-06T15:50:15.145Z,4.00
2022-10-06T15:52:47.448Z,5.85
2022-10-06T15:55:21.412Z,5.05
2022-10-06T15:57:48.949Z,6.55
2022-10-06T16:00:16.565Z,4.93
2022-10-06T16:02:52.469Z,4.30
2022-10-06T16:05:39.865Z,5.32
2022-10-06T16:08:13.443Z,4.38
2022-10-06T16:10:40.817Z,8.50
2022-10-06T16:13:10.377Z,6.47
2022-10-06T16:15:47.791Z,5.88
2022-10-06T16:18:20.744Z,4.03
2022-10-06T16:21:02.183Z,4.40
2022-10-06T16:23:31.312Z,7.03
2022-10-06T16:26:11.374Z,8.50
2022-10-06T16:28:41.123Z,5.15
2022-10-06T16:31:11.914Z,4.63
2022-10-06T16:33:59.849Z,3.90
2022-10-06T16:36:27.356Z,7.05
2022-10-06T16:38:56.852Z,3.05
2022-10-06T16:41:31.825Z,6.18
2022-10-06T16:43:59.226Z,6.03
2022-10-06T16:46:28.982Z,5.43
2022-10-06T16:49:05.026Z,3.65
2022-10-06T16:51:34.384Z,4.07
2022-10-06T16:54:04.522Z,3.33
2022-10-06T16:56:40.884Z,7.20
2022-10-06T16:59:16.691Z,8.65
2022-10-06T17:01:50.894Z,5.45
2022-10-06T17:04:25.857Z,6.93
2022-10-06T17:07:03.834Z,6.65
2022-10-06T17:09:31.281Z,7.03
2022-10-06T17:12:00.969Z,7.10
2022-10-06T17:14:37.799Z,5.82
2022-10-06T17:17:09.838Z,5.60
2022-10-06T17:19:37.398Z,4.40
2022-10-06T17:22:11.832Z,11.57
2022-10-06T17:24:39.320Z,8.10
2022-10-06T17:27:06.743Z,5.32
2022-10-06T17:29:40.865Z,9.45
2022-10-06T17:32:08.856Z,7.90
2022-10-06T17:35:00.083Z,7.68
2022-10-06T17:37:28.412Z,2.88
2022-10-06T17:39:55.880Z,7.85
2022-10-06T17:42:30.093Z,22.42
2022-10-06T17:44:59.806Z,11.70
2022-10-06T17:47:27.997Z,7.60
2022-10-06T17:50:03.741Z,16.92
2022-10-06T17:52:31.896Z,11.20
2022-10-06T17:55:01.757Z,9.88
2022-10-06T17:57:36.821Z,6.28
2022-10-06T18:00:05.836Z,5.35
2022-10-06T18:02:33.605Z,6.22
2022-10-06T18:05:07.777Z,28.88
2022-10-06T18:07:38.275Z,8.05
2022-10-06T18:10:30.911Z,9.90
2022-10-06T18:12:58.853Z,8.65
2022-10-06T18:15:27.183Z,5.13
2022-10-06T18:18:01.748Z,7.85
2022-10-06T18:20:33.429Z,10.25
2022-10-06T18:23:07.745Z,8.38
2022-10-06T18:25:35.618Z,5.00
2022-10-06T18:28:03.390Z,4.63
2022-10-06T18:30:37.760Z,6.10
2022-10-06T18:36:09.688Z,4.85
2022-10-06T18:36:11.597Z,8.32
2022-10-06T18:38:44.809Z,4.35
2022-10-06T18:41:24.647Z,6.03
2022-10-06T18:43:52.243Z,9.57
2022-10-06T18:46:45.412Z,6.82
2022-10-06T18:49:15.813Z,5.93
2022-10-06T18:51:57.897Z,7.70
2022-10-06T18:54:31.863Z,9.85
2022-10-06T18:57:07.593Z,5.68
2022-10-06T18:59:35.558Z,7.35
2022-10-06T19:02:04.669Z,8.73
2022-10-06T19:04:45.953Z,7.97
2022-10-06T19:07:13.591Z,6.32
2022-10-06T19:09:46.484Z,6.40
2022-10-06T19:12:21.572Z,6.50
2022-10-06T19:14:49.168Z,6.72
2022-10-06T19:17:17.230Z,4.90
2022-10-06T19:19:57.631Z,4.00
2022-10-06T19:22:25.452Z,5.82
2022-10-06T19:24:53.168Z,7.72
2022-10-06T19:27:32.746Z,8.60
2022-10-06T19:30:01.988Z,6.55
2022-10-06T19:32:33.865Z,92.25
2022-10-06T19:35:10.576Z,64.97
2022-10-06T19:37:45.948Z,29.40
2022-10-06T19:40:20.251Z,27.92
2022-10-06T19:42:48.346Z,44.75
2022-10-06T19:45:17.391Z,33.65
2022-10-06T19:47:52.183Z,16.08
2022-10-06T19:50:19.932Z,22.50
2022-10-06T19:52:47.510Z,15.23
2022-10-06T19:55:22.199Z,19.08
2022-10-06T19:57:53.566Z,18.00
2022-10-06T20:00:21.104Z,37.90
2022-10-06T20:02:55.374Z,37.85
2022-10-06T20:05:23.978Z,27.75
2022-10-06T20:07:51.594Z,59.50
2022-10-06T20:10:25.413Z,27.50
2022-10-06T20:12:55.881Z,72.80
2022-10-06T20:15:23.390Z,70.75
2022-10-06T20:17:57.709Z,43.28
2022-10-06T20:20:26.942Z,65.60
2022-10-06T20:22:55.983Z,82.35
2022-10-06T20:25:43.978Z,12.68
2022-10-06T20:28:14.027Z,33.42
2022-10-06T20:30:57.046Z,26.85
2022-10-06T20:33:24.611Z,9.20
2022-10-06T20:36:10.128Z,9.70
2022-10-06T20:38:56.258Z,10.85
2022-10-06T20:41:29.983Z,8.68
2022-10-06T20:43:58.548Z,11.90
2022-10-06T20:46:38.233Z,8.15
2022-10-06T20:49:10.948Z,10.88
2022-10-06T20:51:48.978Z,9.57
2022-10-06T20:54:22.681Z,5.55
2022-10-06T20:56:59.020Z,5.65
2022-10-06T20:59:26.683Z,6.05
2022-10-06T21:01:55.219Z,5.97
2022-10-06T21:04:32.953Z,10.73
2022-10-06T21:07:01.636Z,7.30
2022-10-06T21:09:31.481Z,5.63
2022-10-06T21:12:05.956Z,7.28
2022-10-06T21:14:34.284Z,6.07
2022-10-06T21:17:01.991Z,6.55
2022-10-06T21:19:38.515Z,6.78
2022-10-06T21:22:06.688Z,6.32
2022-10-06T21:24:34.186Z,9.55
2022-10-06T21:27:10.878Z,9.48
2022-10-06T21:29:39.077Z,6.15
2022-10-06T21:32:06.499Z,8.10
2022-10-06T21:34:40.803Z,7.90
2022-10-06T21:37:15.115Z,6.70
2022-10-06T21:39:50.574Z,8.63
2022-10-06T21:42:20.308Z,4.90
2022-10-06T21:44:47.723Z,7.22
2022-10-06T21:47:21.905Z,6.90
2022-10-06T21:49:51.519Z,7.22
2022-10-06T21:52:20.783Z,7.05
2022-10-06T21:54:54.835Z,9.25
2022-10-06T21:57:22.389Z,4.50
2022-10-06T21:59:50.048Z,5.78
2022-10-06T22:02:24.002Z,5.47
2022-10-06T22:04:53.386Z,5.28
2022-10-06T22:07:20.888Z,5.50
2022-10-06T22:09:54.391Z,6.95
2022-10-06T22:12:21.762Z,7.85
2022-10-06T22:14:49.108Z,5.03
2022-10-06T22:17:24.533Z,8.07
2022-10-06T22:19:52.374Z,8.45
2022-10-06T22:22:20.112Z,3.70
2022-10-06T22:24:55.823Z,6.78
2022-10-06T22:27:23.262Z,7.28
2022-10-06T22:29:51.944Z,5.85
2022-10-06T22:32:27.232Z,5.57
2022-10-06T22:35:02.356Z,5.38
2022-10-06T22:37:43.372Z,5.90
2022-10-06T22:40:11.524Z,7.10
2022-10-06T22:42:50.453Z,5.70
2022-10-06T22:45:17.857Z,6.40
2022-10-06T22:47:45.854Z,5.05
2022-10-06T22:50:20.359Z,7.40
2022-10-06T22:52:47.679Z,5.43
2022-10-06T22:55:15.120Z,8.43
2022-10-06T22:57:49.354Z,5.32
2022-10-06T23:00:16.892Z,4.22
2022-10-06T23:02:47.101Z,3.25
2022-10-06T23:05:21.304Z,5.95
2022-10-06T23:07:52.023Z,10.68
2022-10-06T23:10:21.509Z,6.18
2022-10-06T23:12:58.999Z,3.90
2022-10-06T23:15:33.334Z,5.25
2022-10-06T23:18:00.761Z,7.68
2022-10-06T23:20:34.442Z,7.32
2022-10-06T23:23:01.882Z,5.30
2022-10-06T23:25:29.332Z,6.43
2022-10-06T23:28:03.682Z,4.88
2022-10-06T23:30:31.110Z,7.18
2022-10-06T23:32:58.469Z,6.78
2022-10-06T23:35:32.491Z,9.82
2022-10-06T23:38:09.154Z,10.02
2022-10-06T23:40:44.510Z,8.52
2022-10-06T23:43:11.917Z,9.90
2022-10-06T23:45:43.890Z,6.88
2022-10-06T23:48:17.895Z,8.48
2022-10-06T23:50:58.221Z,5.07
2022-10-06T23:53:32.965Z,5.47
2022-10-06T23:56:00.727Z,6.55
2022-10-06T23:58:28.597Z,6.95
